Time;durP1;ratioP1;P1;durP2;ratioP2;P2;SDS_P1;SDS_P2;PMS_P1;PMS_P2;Temp;Humidity;BMP_temperature;BMP_pressure;BME280_temperature;BME280_humidity;BME280_pressure;Samples;Min_cycle;Max_cycle;Signal;HPM_P1;HPM_P2
2021/10/09 00:01:59;;;;;;;61.85;36.78;;;13.00;64.40;;;;;;5035157;28;20539;-61
2021/10/09 00:04:25;;;;;;;59.80;39.67;;;13.00;64.40;;;;;;5053223;28;20099;-62
2021/10/09 00:06:51;;;;;;;58.08;36.35;;;13.00;65.00;;;;;;5050459;28;20052;-63
2021/10/09 00:09:17;;;;;;;52.78;35.15;;;13.00;64.50;;;;;;5053097;28;20028;-62
2021/10/09 00:11:43;;;;;;;57.78;36.67;;;13.00;64.50;;;;;;5035139;28;20029;-59
2021/10/09 00:14:11;;;;;;;58.97;35.47;;;13.00;64.50;;;;;;5052919;28;20051;-59
2021/10/09 00:16:39;;;;;;;53.60;36.08;;;13.00;64.30;;;;;;5035390;28;20025;-61
2021/10/09 00:19:05;;;;;;;58.92;34.88;;;12.90;64.40;;;;;;5052195;28;20025;-61
2021/10/09 00:21:31;;;;;;;60.33;34.72;;;12.90;64.50;;;;;;5052540;28;20539;-62
2021/10/09 00:23:58;;;;;;;53.17;37.00;;;12.80;64.80;;;;;;5052134;28;20029;-63
2021/10/09 00:26:24;;;;;;;59.67;34.55;;;12.80;64.70;;;;;;5034917;28;20029;-63
2021/10/09 00:28:50;;;;;;;50.15;35.35;;;12.80;64.80;;;;;;5051669;28;20032;-63
2021/10/09 00:31:16;;;;;;;55.85;35.20;;;12.80;64.80;;;;;;5034584;28;20029;-63
2021/10/09 00:33:43;;;;;;;58.63;33.67;;;12.70;64.80;;;;;;5052497;28;20481;-63
2021/10/09 00:36:09;;;;;;;52.03;34.17;;;12.70;64.90;;;;;;5051415;28;20031;-64
2021/10/09 00:38:35;;;;;;;52.47;32.67;;;12.70;65.10;;;;;;5052884;28;20071;-64
2021/10/09 00:41:02;;;;;;;47.33;33.35;;;12.70;65.00;;;;;;5052806;28;20049;-64
2021/10/09 00:43:28;;;;;;;56.03;33.42;;;12.60;64.90;;;;;;5052724;28;20032;-63
2021/10/09 00:45:57;;;;;;;55.72;36.22;;;12.60;65.00;;;;;;5052291;28;20111;-63
2021/10/09 00:48:23;;;;;;;48.22;33.22;;;12.60;65.10;;;;;;5052755;28;20031;-63
2021/10/09 00:50:50;;;;;;;50.83;35.72;;;12.60;65.20;;;;;;5052647;28;20075;-63
2021/10/09 00:53:21;;;;;;;58.70;33.65;;;12.60;65.10;;;;;;5052842;28;20020;-63
2021/10/09 00:55:48;;;;;;;49.55;32.60;;;12.60;65.10;;;;;;5052227;28;20045;-63
2021/10/09 00:58:15;;;;;;;48.42;32.65;;;12.60;65.00;;;;;;5052775;28;20104;-63
2021/10/09 01:00:44;;;;;;;53.65;32.83;;;12.60;64.90;;;;;;5052623;28;20040;-63
2021/10/09 01:03:10;;;;;;;52.90;32.38;;;12.60;64.90;;;;;;5052139;28;20021;-64
2021/10/09 01:05:36;;;;;;;48.55;31.15;;;12.60;64.90;;;;;;5052328;28;20041;-63
2021/10/09 01:08:03;;;;;;;55.88;33.15;;;12.70;64.90;;;;;;5051752;28;20071;-64
2021/10/09 01:10:29;;;;;;;56.50;31.00;;;12.70;64.90;;;;;;5052275;28;20170;-63
2021/10/09 01:12:57;;;;;;;51.17;30.90;;;12.70;64.70;;;;;;5051461;28;20112;-64
2021/10/09 01:15:29;;;;;;;54.55;30.40;;;12.70;65.00;;;;;;5052242;28;20379;-64
2021/10/09 01:17:56;;;;;;;46.92;28.05;;;12.80;64.30;;;;;;5033984;28;20033;-65
2021/10/09 01:20:21;;;;;;;48.50;29.05;;;12.80;64.30;;;;;;5034415;28;20025;-64
2021/10/09 01:22:48;;;;;;;45.42;29.02;;;12.80;64.00;;;;;;5052255;28;20032;-64
2021/10/09 01:25:14;;;;;;;47.08;28.70;;;12.80;63.80;;;;;;5051379;28;20029;-64
2021/10/09 01:27:40;;;;;;;45.85;28.30;;;12.80;63.50;;;;;;5052599;28;20056;-65
2021/10/09 01:30:10;;;;;;;46.47;27.75;;;12.90;63.30;;;;;;5051744;28;20059;-64
2021/10/09 01:32:36;;;;;;;45.75;26.50;;;12.90;63.00;;;;;;5051536;28;20107;-63
2021/10/09 01:35:07;;;;;;;44.72;27.33;;;12.90;62.90;;;;;;5051235;28;20112;-64
2021/10/09 01:37:37;;;;;;;42.88;26.33;;;12.90;62.80;;;;;;5051967;28;20146;-65
2021/10/09 01:40:03;;;;;;;45.83;27.42;;;12.90;62.80;;;;;;5051198;28;20547;-62
2021/10/09 01:42:29;;;;;;;51.53;28.63;;;13.00;62.80;;;;;;5052089;28;20025;-62
2021/10/09 01:44:55;;;;;;;48.10;28.77;;;12.90;62.90;;;;;;5051446;28;20060;-63
2021/10/09 01:47:22;;;;;;;47.85;28.73;;;12.90;62.80;;;;;;5052086;28;20390;-63
2021/10/09 01:49:47;;;;;;;48.10;28.63;;;12.90;62.90;;;;;;5051593;28;20532;-64
2021/10/09 01:52:13;;;;;;;40.60;28.27;;;12.90;63.00;;;;;;5050588;28;20081;-66
2021/10/09 01:54:39;;;;;;;47.70;27.92;;;12.90;63.00;;;;;;5051733;28;20449;-62
2021/10/09 01:57:05;;;;;;;42.80;27.70;;;12.80;63.10;;;;;;5050879;28;20041;-63
2021/10/09 01:59:30;;;;;;;44.20;27.85;;;12.80;63.20;;;;;;5051652;28;20025;-63
2021/10/09 02:01:56;;;;;;;45.97;28.40;;;12.80;63.20;;;;;;5050950;28;20052;-63
2021/10/09 02:04:25;;;;;;;44.40;26.38;;;12.70;63.30;;;;;;5033753;28;20021;-62
2021/10/09 02:06:50;;;;;;;46.90;28.02;;;12.70;63.30;;;;;;5033901;28;20312;-62
2021/10/09 02:09:17;;;;;;;42.92;26.15;;;12.70;63.30;;;;;;5050851;28;20086;-63
2021/10/09 02:11:46;;;;;;;40.75;28.15;;;12.70;63.40;;;;;;5051279;28;20048;-63
2021/10/09 02:27:19;;;;;;;50.45;31.10;;;12.80;63.50;;;;;;5051237;28;20037;-63
2021/10/09 02:29:45;;;;;;;45.33;29.55;;;12.80;63.60;;;;;;5052678;28;20532;-63
2021/10/09 02:32:10;;;;;;;49.42;30.67;;;12.70;63.70;;;;;;5054356;28;20131;-63
2021/10/09 02:34:36;;;;;;;47.03;30.23;;;12.70;63.80;;;;;;5055248;28;20082;-63
2021/10/09 02:37:02;;;;;;;46.95;30.77;;;12.70;64.00;;;;;;5054971;28;20040;-62
2021/10/09 02:39:27;;;;;;;53.22;30.63;;;12.60;64.10;;;;;;5054755;28;20096;-63
2021/10/09 02:41:53;;;;;;;42.25;30.20;;;12.60;64.20;;;;;;5055565;28;20025;-63
2021/10/09 02:44:20;;;;;;;48.00;29.80;;;12.60;64.40;;;;;;5036472;28;20049;-63
2021/10/09 02:46:45;;;;;;;46.20;28.95;;;12.60;64.50;;;;;;5055387;28;20072;-63
2021/10/09 02:49:11;;;;;;;41.03;26.65;;;12.50;64.30;;;;;;5054344;28;20053;-63
2021/10/09 02:51:37;;;;;;;43.72;24.98;;;12.50;64.20;;;;;;5055222;28;20458;-63
2021/10/09 02:54:03;;;;;;;43.70;25.48;;;12.40;63.90;;;;;;5055024;28;20033;-63
2021/10/09 02:56:29;;;;;;;41.05;25.58;;;12.40;63.90;;;;;;5054478;28;20100;-63
2021/10/09 02:58:55;;;;;;;39.00;24.45;;;12.40;63.80;;;;;;5052930;28;20244;-64
2021/10/09 03:01:20;;;;;;;40.92;24.40;;;12.40;63.80;;;;;;5054348;28;20025;-63
2021/10/09 03:03:46;;;;;;;39.88;22.95;;;12.40;63.60;;;;;;5054604;28;20031;-63
2021/10/09 03:06:12;;;;;;;42.28;23.42;;;12.40;63.50;;;;;;5052837;28;20067;-63
2021/10/09 03:08:37;;;;;;;40.95;23.40;;;12.40;63.60;;;;;;5054663;28;20033;-63
2021/10/09 03:11:03;;;;;;;41.00;24.65;;;12.40;63.60;;;;;;5053907;28;20028;-63
2021/10/09 03:13:29;;;;;;;38.45;24.52;;;12.40;63.70;;;;;;5055133;28;20489;-62
2021/10/09 03:15:54;;;;;;;42.50;25.48;;;12.40;63.80;;;;;;5055052;28;20510;-63
2021/10/09 03:18:20;;;;;;;48.38;26.67;;;12.50;64.10;;;;;;5036446;28;20471;-63
2021/10/09 03:20:46;;;;;;;51.58;27.63;;;12.50;64.40;;;;;;5053270;28;20111;-63
2021/10/09 03:23:12;;;;;;;41.92;28.02;;;12.60;64.50;;;;;;5053693;28;20021;-63
2021/10/09 03:25:38;;;;;;;42.97;28.73;;;12.60;64.40;;;;;;5054167;28;20025;-63
2021/10/09 03:28:04;;;;;;;46.47;29.33;;;12.60;64.40;;;;;;5052682;28;20035;-63
2021/10/09 03:30:29;;;;;;;44.05;27.70;;;12.60;64.40;;;;;;5054184;28;20412;-63
2021/10/09 03:32:55;;;;;;;45.75;29.15;;;12.60;64.30;;;;;;5054343;28;20062;-63
2021/10/09 03:35:21;;;;;;;45.00;27.50;;;12.60;64.30;;;;;;5053383;28;20082;-64
2021/10/09 03:37:46;;;;;;;40.78;25.90;;;12.50;64.30;;;;;;5053495;28;20116;-62
2021/10/09 03:40:16;;;;;;;41.63;25.17;;;12.50;64.40;;;;;;5034898;28;20036;-62
2021/10/09 03:45:43;;;;;;;40.15;24.58;;;12.50;64.40;;;;;;5054324;28;20055;-62
2021/10/09 03:48:20;;;;;;;39.55;25.63;;;12.50;64.40;;;;;;5053599;28;20059;-62
2021/10/09 03:53:30;;;;;;;;;;;12.40;64.30;;;;;;5054723;28;20032;-62
2021/10/09 03:55:55;;;;;;;47.13;25.40;;;12.40;64.70;;;;;;5053718;28;19913;-62
2021/10/09 03:58:21;;;;;;;41.20;26.45;;;12.40;64.50;;;;;;5053702;28;20036;-62
2021/10/09 04:00:47;;;;;;;33.40;24.52;;;12.40;64.60;;;;;;5053771;28;20454;-63
2021/10/09 04:03:13;;;;;;;42.95;25.23;;;12.30;64.50;;;;;;5053105;28;20029;-62
2021/10/09 04:05:38;;;;;;;39.20;25.13;;;12.30;64.80;;;;;;5053636;28;20029;-62
2021/10/09 04:08:06;;;;;;;45.42;24.75;;;12.20;64.70;;;;;;5053727;28;20021;-62
2021/10/09 04:10:36;;;;;;;44.35;24.13;;;12.20;64.80;;;;;;5053425;28;20029;-62
2021/10/09 04:13:02;;;;;;;43.80;22.35;;;12.20;64.70;;;;;;5035899;28;20056;-62
2021/10/09 04:15:29;;;;;;;39.47;22.67;;;12.20;64.70;;;;;;5053389;28;20447;-63
2021/10/09 04:17:55;;;;;;;36.15;22.45;;;12.10;64.90;;;;;;5035533;28;20049;-62
2021/10/09 04:20:20;;;;;;;40.00;23.15;;;12.10;64.90;;;;;;5051462;28;20067;-62
2021/10/09 04:22:46;;;;;;;40.13;23.10;;;12.10;65.20;;;;;;5052952;28;20029;-62
2021/10/09 04:25:12;;;;;;;33.90;22.10;;;12.00;65.50;;;;;;5052675;28;20061;-63
2021/10/09 04:27:38;;;;;;;39.40;23.55;;;12.00;65.90;;;;;;5035695;28;20029;-62
2021/10/09 04:30:05;;;;;;;38.92;24.25;;;11.90;65.90;;;;;;5034430;28;20033;-63
2021/10/09 04:32:31;;;;;;;45.88;24.38;;;11.90;66.00;;;;;;5034799;28;20052;-63
2021/10/09 04:34:57;;;;;;;45.75;30.85;;;11.90;66.10;;;;;;5052459;28;20056;-62
2021/10/09 04:37:22;;;;;;;43.80;31.27;;;11.90;66.20;;;;;;5033498;28;20445;-62
2021/10/09 04:39:48;;;;;;;48.08;30.80;;;12.00;66.40;;;;;;5051337;28;20646;-62
2021/10/09 04:42:14;;;;;;;45.25;31.27;;;12.00;66.30;;;;;;5051782;28;20378;-62
2021/10/09 04:44:40;;;;;;;46.67;30.48;;;12.00;66.30;;;;;;5034120;28;20360;-62
2021/10/09 04:47:05;;;;;;;54.22;32.20;;;12.00;66.50;;;;;;5051882;28;20390;-62
2021/10/09 04:49:31;;;;;;;49.22;31.08;;;12.00;66.60;;;;;;5051989;28;20017;-62
2021/10/09 04:51:57;;;;;;;52.13;32.47;;;12.00;66.80;;;;;;5051451;28;20103;-62
2021/10/09 04:54:23;;;;;;;49.60;31.40;;;12.00;66.90;;;;;;5051629;28;20163;-63
2021/10/09 04:56:49;;;;;;;55.05;31.15;;;12.00;66.80;;;;;;5050571;28;20029;-62
2021/10/09 04:59:14;;;;;;;47.75;31.23;;;12.00;66.50;;;;;;5051288;28;20485;-62
2021/10/09 05:01:40;;;;;;;52.17;31.40;;;12.10;66.70;;;;;;5051898;28;20462;-62
2021/10/09 05:04:06;;;;;;;49.97;28.25;;;12.10;66.60;;;;;;5051060;28;20512;-62
2021/10/09 05:06:32;;;;;;;51.05;30.95;;;12.10;66.30;;;;;;5051587;28;20029;-63
2021/10/09 05:08:58;;;;;;;50.05;30.35;;;12.10;66.10;;;;;;5033604;28;20025;-63
2021/10/09 05:11:23;;;;;;;48.80;29.08;;;12.20;65.90;;;;;;5051379;28;20043;-63
2021/10/09 05:13:49;;;;;;;39.50;28.33;;;12.20;65.70;;;;;;5051490;28;20021;-63
2021/10/09 05:16:15;;;;;;;53.25;31.25;;;12.20;65.50;;;;;;5050996;28;20068;-63
2021/10/09 05:18:40;;;;;;;42.35;28.13;;;12.20;65.50;;;;;;5050734;28;20481;-63
2021/10/09 05:21:10;;;;;;;45.92;28.88;;;12.20;65.40;;;;;;5034011;28;20021;-63
2021/10/09 05:23:36;;;;;;;47.22;23.88;;;12.20;65.40;;;;;;5052340;28;20029;-63
2021/10/09 05:26:03;;;;;;;42.08;23.73;;;12.30;64.90;;;;;;5051833;28;20032;-63
2021/10/09 05:31:05;;;;;;;43.67;19.38;;;12.30;64.00;;;;;;5052139;28;20140;-64
2021/10/09 05:35:57;;;;;;;37.28;19.73;;;12.30;63.80;;;;;;5052189;28;20486;-63
2021/10/09 05:38:22;;;;;;;37.65;20.65;;;12.30;63.80;;;;;;5051098;28;20162;-64
2021/10/09 05:40:48;;;;;;;36.78;19.13;;;12.30;63.70;;;;;;5048660;28;20119;-63
2021/10/09 05:43:20;;;;;;;38.65;19.00;;;12.40;63.60;;;;;;5049752;28;20021;-63
2021/10/09 05:45:45;;;;;;;36.25;17.75;;;12.40;63.20;;;;;;5048443;28;20053;-64
2021/10/09 05:48:11;;;;;;;41.35;18.42;;;12.40;62.80;;;;;;5049231;28;20339;-63
2021/10/09 05:55:55;;;;;;;41.40;18.10;;;12.40;62.00;;;;;;5048808;28;20037;-64
2021/10/09 05:58:46;;;;;;;40.53;19.80;;;12.40;61.70;;;;;;5049443;28;20049;-62
2021/10/09 06:31:32;;;;;;;;;;;12.30;59.40;;;;;;5049284;28;20574;-63
2021/10/09 07:00:57;;;;;;;43.47;15.90;;;13.30;56.10;;;;;;5047690;28;20043;-63
2021/10/09 07:03:22;;;;;;;34.15;15.93;;;13.70;55.60;;;;;;5029105;28;20487;-64
2021/10/09 07:05:50;;;;;;;38.20;16.98;;;14.30;53.80;;;;;;5047478;28;20076;-63
2021/10/09 07:08:15;;;;;;;38.38;15.70;;;14.50;52.30;;;;;;5047493;28;20056;-62
2021/10/09 07:10:46;;;;;;;32.08;15.32;;;15.50;50.20;;;;;;5047696;28;20455;-62
2021/10/09 07:13:12;;;;;;;32.40;16.95;;;15.30;49.40;;;;;;5047828;28;20025;-63
2021/10/09 07:15:38;;;;;;;55.97;16.10;;;14.90;50.50;;;;;;5049384;28;20064;-63
2021/10/09 07:18:09;;;;;;;38.17;15.55;;;14.60;51.30;;;;;;5034279;28;20029;-64
2021/10/09 07:20:35;;;;;;;38.58;14.82;;;15.10;52.50;;;;;;5051819;28;20047;-64
2021/10/09 07:23:02;;;;;;;44.95;17.95;;;16.30;50.40;;;;;;5050755;28;20025;-63
2021/10/09 07:25:29;;;;;;;64.03;19.10;;;18.00;46.90;;;;;;5051137;28;20045;-63
2021/10/09 07:27:55;;;;;;;36.05;16.15;;;20.10;44.50;;;;;;5050534;28;20040;-64
2021/10/09 07:30:20;;;;;;;35.92;17.73;;;22.30;40.70;;;;;;5032940;28;20029;-63
2021/10/09 07:32:46;;;;;;;31.02;18.70;;;23.20;38.30;;;;;;5050230;28;20025;-63
2021/10/09 07:35:13;;;;;;;30.00;15.05;;;24.80;36.00;;;;;;5050887;28;20033;-63
2021/10/09 07:37:40;;;;;;;45.30;16.50;;;25.80;33.30;;;;;;5033203;28;20025;-65
2021/10/09 07:40:06;;;;;;;36.20;15.63;;;24.90;33.20;;;;;;5050397;28;20260;-63
2021/10/09 07:42:32;;;;;;;46.97;15.95;;;24.50;33.70;;;;;;5049966;28;20029;-63
2021/10/09 07:44:58;;;;;;;43.00;16.77;;;23.30;34.00;;;;;;5050019;28;20049;-63
2021/10/09 07:47:24;;;;;;;40.97;15.93;;;21.90;35.80;;;;;;5050340;28;20025;-63
2021/10/09 07:49:49;;;;;;;29.15;14.75;;;20.80;37.30;;;;;;5050604;28;20131;-63
2021/10/09 07:52:16;;;;;;;38.90;16.98;;;19.90;38.80;;;;;;5050693;28;20068;-63
2021/10/09 07:54:41;;;;;;;30.23;17.17;;;19.10;39.80;;;;;;5050201;28;20474;-62
2021/10/09 07:57:07;;;;;;;47.38;16.65;;;18.50;41.00;;;;;;5050381;28;20062;-63
2021/10/09 07:59:34;;;;;;;34.70;16.75;;;18.60;42.80;;;;;;5050657;28;20102;-63
2021/10/09 08:02:00;;;;;;;38.85;15.98;;;18.80;40.90;;;;;;5052992;28;20060;-64
2021/10/09 08:04:28;;;;;;;29.38;15.27;;;18.20;42.00;;;;;;5034768;28;20087;-63
2021/10/09 08:06:54;;;;;;;38.45;15.52;;;17.90;42.70;;;;;;5053091;28;20054;-63
2021/10/09 08:09:20;;;;;;;34.67;15.57;;;17.90;43.10;;;;;;5034699;28;20021;-64
2021/10/09 08:11:46;;;;;;;33.72;14.68;;;17.70;43.40;;;;;;5035297;28;20060;-64
2021/10/09 08:14:12;;;;;;;35.30;15.50;;;17.40;43.90;;;;;;5053111;28;20493;-64
2021/10/09 08:16:38;;;;;;;38.95;17.27;;;17.40;44.30;;;;;;5035032;28;20075;-64
2021/10/09 08:19:04;;;;;;;36.60;16.85;;;17.40;44.60;;;;;;5034890;28;20028;-63
2021/10/09 08:21:33;;;;;;;40.80;15.23;;;17.40;44.80;;;;;;5051207;28;20075;-66
2021/10/09 08:27:13;;;;;;;45.90;25.65;;;17.60;44.50;;;;;;5052271;28;20032;-65
2021/10/09 08:40:36;;;;;;;;;;;16.10;46.50;;;;;;5052396;28;20391;-67
2021/10/09 08:43:02;;;;;;;27.35;14.95;;;15.90;47.10;;;;;;5052313;28;19905;-66
2021/10/09 08:45:28;;;;;;;26.83;14.27;;;15.70;47.00;;;;;;5051133;28;20052;-65
2021/10/09 08:47:54;;;;;;;27.20;14.68;;;15.60;47.30;;;;;;5051758;28;20031;-66
2021/10/09 08:50:20;;;;;;;23.95;13.13;;;15.50;47.40;;;;;;5050287;28;20386;-64
2021/10/09 08:53:07;;;;;;;24.00;12.95;;;15.50;46.90;;;;;;5052075;28;20028;-64
2021/10/09 08:55:35;;;;;;;24.13;11.63;;;15.50;46.00;;;;;;5051686;28;20029;-66
2021/10/09 08:58:07;;;;;;;27.30;12.95;;;15.50;45.80;;;;;;5052003;28;20029;-65
2021/10/09 09:03:18;;;;;;;26.65;12.02;;;15.60;45.60;;;;;;5051202;28;20070;-65
2021/10/09 09:06:10;;;;;;;26.17;11.27;;;15.60;45.80;;;;;;5051401;28;20029;-64
2021/10/09 09:34:16;;;;;;;32.88;12.52;;;15.40;39.40;;;;;;5050400;28;20492;-67
2021/10/09 09:39:24;;;;;;;27.58;9.85;;;15.30;40.40;;;;;;5049339;28;20029;-65
2021/10/09 09:41:49;;;;;;;31.27;9.25;;;15.40;39.50;;;;;;5047280;28;20095;-64
2021/10/09 09:44:18;;;;;;;26.38;8.75;;;15.20;39.10;;;;;;5050425;28;20152;-64
2021/10/09 09:47:11;;;;;;;29.25;10.27;;;15.20;39.30;;;;;;5050945;28;20122;-67
2021/10/09 09:49:37;;;;;;;34.83;9.80;;;15.10;39.00;;;;;;5050250;28;20032;-67
2021/10/09 09:52:03;;;;;;;21.33;8.77;;;15.20;39.00;;;;;;5050410;28;20025;-67
2021/10/09 09:54:30;;;;;;;20.65;7.97;;;15.30;38.60;;;;;;5031893;28;20021;-66
2021/10/09 09:56:58;;;;;;;21.60;7.80;;;15.50;38.10;;;;;;5050473;28;20033;-68
2021/10/09 09:59:29;;;;;;;15.98;7.95;;;15.60;37.70;;;;;;5050010;28;20108;-66
2021/10/09 10:01:55;;;;;;;20.27;7.60;;;15.70;37.30;;;;;;5049527;28;20101;-64
2021/10/09 10:04:22;;;;;;;26.48;8.32;;;15.70;37.50;;;;;;5050653;28;20064;-66
2021/10/09 10:06:48;;;;;;;17.45;7.70;;;15.80;37.00;;;;;;5049523;28;20047;-64
2021/10/09 10:09:14;;;;;;;18.15;7.63;;;15.80;36.70;;;;;;5049945;28;20044;-65
2021/10/09 10:11:41;;;;;;;19.05;8.20;;;16.00;37.00;;;;;;5050272;28;20047;-65
2021/10/09 10:14:07;;;;;;;20.05;8.27;;;16.10;37.00;;;;;;5050423;28;20146;-66
2021/10/09 10:16:34;;;;;;;22.13;9.25;;;16.30;37.00;;;;;;5049633;28;20483;-66
2021/10/09 10:19:00;;;;;;;35.85;12.00;;;16.40;36.70;;;;;;5049664;28;20021;-65
2021/10/09 10:21:46;;;;;;;26.90;8.55;;;16.40;37.20;;;;;;5049062;28;20028;-65
2021/10/09 10:24:32;;;;;;;21.60;9.40;;;16.90;36.90;;;;;;5049723;28;20025;-67
2021/10/09 10:27:31;;;;;;;19.05;8.68;;;17.30;36.50;;;;;;5050471;28;20056;-66
2021/10/09 10:30:15;;;;;;;16.35;9.32;;;17.50;35.30;;;;;;5049665;28;20025;-67
2021/10/09 10:33:01;;;;;;;16.60;8.07;;;17.80;35.30;;;;;;5049551;28;20083;-65
2021/10/09 10:35:29;;;;;;;23.15;9.65;;;17.80;34.90;;;;;;5049322;28;20501;-67
2021/10/09 10:38:34;;;;;;;25.85;9.80;;;17.90;35.40;;;;;;5049961;28;20113;-65
2021/10/09 10:41:05;;;;;;;23.30;9.57;;;17.50;34.60;;;;;;5048286;28;20033;-65
2021/10/09 10:57:03;;;;;;;29.80;9.43;;;17.10;36.60;;;;;;5054001;28;20090;-67
2021/10/09 10:59:34;;;;;;;19.77;8.55;;;17.20;36.30;;;;;;5054319;28;20461;-65
2021/10/09 11:02:28;;;;;;;22.77;9.02;;;17.00;36.10;;;;;;5036213;28;20053;-66
2021/10/09 11:04:55;;;;;;;19.90;9.77;;;17.00;36.30;;;;;;5054376;28;20120;-65
2021/10/09 11:07:26;;;;;;;16.70;8.55;;;17.20;36.70;;;;;;5053438;28;20430;-65
2021/10/09 11:09:52;;;;;;;34.53;12.02;;;17.20;36.70;;;;;;5052083;28;20115;-66
2021/10/09 11:12:23;;;;;;;24.80;9.15;;;17.30;36.90;;;;;;5035511;28;20049;-65
2021/10/09 11:14:50;;;;;;;28.80;9.75;;;17.30;37.00;;;;;;5054170;28;20025;-66
2021/10/09 11:17:17;;;;;;;36.75;10.13;;;17.30;35.80;;;;;;5054002;28;20084;-66
2021/10/09 11:19:49;;;;;;;22.25;8.98;;;17.20;36.50;;;;;;5053951;28;20040;-65
2021/10/09 11:22:20;;;;;;;37.07;14.83;;;17.30;36.50;;;;;;5053527;28;20454;-65
2021/10/09 11:24:53;;;;;;;24.83;9.80;;;17.30;36.20;;;;;;5052547;28;20029;-65
2021/10/09 11:27:20;;;;;;;25.17;9.68;;;17.50;36.10;;;;;;5053029;28;20120;-66
2021/10/09 11:30:02;;;;;;;76.35;41.40;;;17.50;34.80;;;;;;5053145;28;20052;-65
2021/10/09 11:32:39;;;;;;;23.33;9.18;;;17.30;35.20;;;;;;5050769;28;20378;-65
2021/10/09 11:35:07;;;;;;;38.03;19.77;;;17.40;35.40;;;;;;5052770;28;20056;-67
2021/10/09 11:37:34;;;;;;;26.02;10.23;;;17.40;35.20;;;;;;5052067;28;20079;-66
2021/10/09 11:40:04;;;;;;;78.20;43.15;;;17.30;35.80;;;;;;5051995;28;20032;-66
2021/10/09 11:42:37;;;;;;;31.30;14.13;;;17.50;35.80;;;;;;5051543;28;20485;-66
2021/10/09 11:45:38;;;;;;;37.05;18.45;;;17.50;35.20;;;;;;5034517;28;20410;-66
2021/10/09 11:53:58;;;;;;;21.75;11.38;;;17.70;34.60;;;;;;5051986;28;20520;-65
2021/10/09 11:56:24;;;;;;;22.42;10.55;;;17.70;34.90;;;;;;5051624;28;20056;-65
2021/10/09 11:58:57;;;;;;;28.23;11.02;;;17.70;35.20;;;;;;5051411;28;20099;-66
2021/10/09 12:01:30;;;;;;;67.47;38.85;;;17.60;34.80;;;;;;5051531;28;20029;-64
2021/10/09 12:04:11;;;;;;;;;;;17.60;35.00;;;;;;5053032;28;20036;-68
2021/10/09 12:06:48;;;;;;;43.50;23.25;;;18.00;35.10;;;;;;5034002;28;19995;-65
2021/10/09 12:09:16;;;;;;;60.30;36.97;;;18.90;33.60;;;;;;5052635;28;20021;-66
2021/10/09 12:11:43;;;;;;;27.77;11.07;;;19.00;33.60;;;;;;5052103;28;20048;-65
2021/10/09 12:14:10;;;;;;;41.78;11.30;;;19.80;33.00;;;;;;5034673;28;20384;-66
2021/10/09 12:16:40;;;;;;;25.95;10.38;;;19.70;31.20;;;;;;5051632;28;20037;-66
2021/10/09 12:19:13;;;;;;;26.23;11.18;;;19.30;32.20;;;;;;5052492;28;20036;-65
2021/10/09 12:21:41;;;;;;;112.80;73.35;;;19.00;32.50;;;;;;5034117;28;20101;-66
2021/10/09 12:24:14;;;;;;;42.65;24.73;;;18.80;32.80;;;;;;5051451;28;20108;-64
2021/10/09 12:26:41;;;;;;;41.97;25.30;;;18.50;33.30;;;;;;5050158;28;20209;-66
2021/10/09 12:29:12;;;;;;;24.85;10.13;;;18.40;33.80;;;;;;5052236;28;20087;-66
2021/10/09 12:31:44;;;;;;;29.45;12.93;;;18.40;33.30;;;;;;5050437;28;20083;-66
2021/10/09 12:34:30;;;;;;;25.10;13.23;;;18.20;33.60;;;;;;5033649;28;20035;-67
2021/10/09 12:37:17;;;;;;;57.38;31.95;;;18.10;34.10;;;;;;5033627;28;20116;-65
2021/10/09 12:39:45;;;;;;;20.67;10.90;;;18.10;34.10;;;;;;5050640;28;20017;-65
2021/10/09 12:42:12;;;;;;;26.15;9.68;;;18.10;34.60;;;;;;5049926;28;20035;-66
2021/10/09 12:44:38;;;;;;;18.45;9.18;;;18.00;33.90;;;;;;5050708;28;20091;-67
2021/10/09 12:47:04;;;;;;;27.80;12.02;;;17.80;34.40;;;;;;5051040;28;20474;-65
2021/10/09 12:49:30;;;;;;;29.65;14.52;;;17.80;34.80;;;;;;5049355;28;20068;-67
2021/10/09 12:51:56;;;;;;;43.80;20.67;;;17.80;35.10;;;;;;5051076;28;20428;-66
2021/10/09 12:54:24;;;;;;;49.05;25.65;;;17.80;35.30;;;;;;5032865;28;20068;-66
2021/10/09 12:56:50;;;;;;;25.73;13.52;;;17.70;35.30;;;;;;5051179;28;20045;-67
2021/10/09 12:59:17;;;;;;;24.67;13.13;;;17.80;35.30;;;;;;5051234;28;20527;-66
2021/10/09 13:01:43;;;;;;;47.35;25.10;;;18.00;35.30;;;;;;5032725;28;20517;-66
2021/10/09 13:04:09;;;;;;;31.73;12.63;;;18.10;35.20;;;;;;5050722;28;20145;-66
2021/10/09 13:06:35;;;;;;;18.02;9.68;;;18.10;35.00;;;;;;5048493;28;20257;-66
2021/10/09 13:09:01;;;;;;;34.47;19.15;;;18.20;35.10;;;;;;5033383;28;20386;-65
2021/10/09 13:11:30;;;;;;;20.83;8.93;;;18.30;35.20;;;;;;5032810;28;20480;-66
2021/10/09 13:13:57;;;;;;;19.17;9.68;;;18.20;35.00;;;;;;5049693;28;20418;-65
2021/10/09 13:16:26;;;;;;;24.77;9.65;;;18.10;35.10;;;;;;5050676;28;20029;-67
2021/10/09 13:18:53;;;;;;;25.70;11.30;;;17.80;35.50;;;;;;5050579;28;20025;-66
2021/10/09 13:21:21;;;;;;;23.77;9.57;;;17.80;35.90;;;;;;5050046;28;20036;-67
2021/10/09 13:23:47;;;;;;;21.40;9.70;;;17.90;36.10;;;;;;5050467;28;20036;-66
2021/10/09 13:26:12;;;;;;;24.23;9.40;;;17.90;35.80;;;;;;5032890;28;20111;-66
2021/10/09 13:28:40;;;;;;;26.80;13.43;;;17.80;36.20;;;;;;5049673;28;20040;-67
2021/10/09 13:31:06;;;;;;;29.73;13.43;;;17.70;36.10;;;;;;5050795;28;20029;-66
2021/10/09 13:33:32;;;;;;;22.30;10.93;;;17.70;36.50;;;;;;5050043;28;20363;-67
2021/10/09 13:35:58;;;;;;;20.75;10.82;;;17.60;36.60;;;;;;5050636;28;20064;-68
2021/10/09 13:38:29;;;;;;;24.90;13.07;;;17.60;36.90;;;;;;5050391;28;20438;-65
2021/10/09 13:40:55;;;;;;;37.90;18.73;;;17.70;36.90;;;;;;5050450;28;20029;-67
2021/10/09 13:43:21;;;;;;;29.05;15.63;;;17.50;37.00;;;;;;5048937;28;20025;-68
2021/10/09 13:45:47;;;;;;;34.58;19.52;;;17.50;37.00;;;;;;5050416;28;20505;-67
2021/10/09 13:48:13;;;;;;;24.15;10.60;;;17.50;37.00;;;;;;5032904;28;20039;-65
2021/10/09 13:50:44;;;;;;;18.08;9.10;;;17.50;37.10;;;;;;5050337;28;20029;-66
2021/10/09 13:53:10;;;;;;;21.48;13.02;;;17.50;37.30;;;;;;5049999;28;20021;-67
2021/10/09 13:55:37;;;;;;;31.70;14.13;;;17.50;37.30;;;;;;5031799;28;20086;-67
2021/10/09 13:58:03;;;;;;;23.73;12.65;;;17.40;37.40;;;;;;5032769;28;20025;-68
2021/10/09 14:00:30;;;;;;;25.10;13.45;;;17.40;37.50;;;;;;5050563;28;20033;-67
2021/10/09 14:02:57;;;;;;;32.90;15.50;;;17.30;37.60;;;;;;5032192;28;20091;-67
2021/10/09 14:05:24;;;;;;;28.17;12.30;;;17.10;38.00;;;;;;5050558;28;20052;-66
2021/10/09 14:07:50;;;;;;;22.35;9.45;;;16.90;38.40;;;;;;5050070;28;20032;-67
2021/10/09 14:10:19;;;;;;;24.05;12.23;;;16.90;38.40;;;;;;5032617;28;20378;-67
2021/10/09 14:12:45;;;;;;;20.23;10.10;;;16.80;38.60;;;;;;5031931;28;20021;-67
2021/10/09 14:15:12;;;;;;;92.68;47.85;;;16.80;38.60;;;;;;5032594;28;20052;-67
2021/10/09 14:17:38;;;;;;;34.15;15.38;;;16.90;38.30;;;;;;5032189;28;20444;-67
2021/10/09 14:20:06;;;;;;;22.15;10.70;;;16.90;38.30;;;;;;5032652;28;20032;-66
2021/10/09 14:22:32;;;;;;;31.27;15.40;;;17.00;38.50;;;;;;5050237;28;20079;-67
2021/10/09 14:24:59;;;;;;;37.90;18.75;;;17.00;38.60;;;;;;5050747;28;20044;-67
2021/10/09 14:27:28;;;;;;;147.65;91.45;;;17.00;38.70;;;;;;5054337;28;20025;-65
2021/10/09 14:29:54;;;;;;;28.85;14.48;;;17.10;38.80;;;;;;5053223;28;20036;-67
2021/10/09 14:32:20;;;;;;;32.78;14.75;;;17.00;39.10;;;;;;5055090;28;20025;-68
2021/10/09 14:34:46;;;;;;;31.40;15.70;;;17.10;39.20;;;;;;5054321;28;20424;-66
2021/10/09 14:37:12;;;;;;;20.88;10.05;;;17.10;39.30;;;;;;5054430;28;20557;-67
2021/10/09 14:39:38;;;;;;;21.83;10.30;;;17.00;39.40;;;;;;5054178;28;20028;-67
2021/10/09 14:42:07;;;;;;;26.58;11.98;;;17.00;39.50;;;;;;5052955;28;20087;-66
2021/10/09 14:44:32;;;;;;;45.00;25.90;;;17.00;39.80;;;;;;5053095;28;20049;-66
2021/10/09 14:49:48;;;;;;;29.98;15.80;;;16.90;40.80;;;;;;5054081;28;20318;-65
2021/10/09 14:55:01;;;;;;;27.58;13.32;;;16.70;42.10;;;;;;5053535;28;20029;-66
2021/10/09 15:19:02;;;;;;;28.00;13.45;;;16.60;44.10;;;;;;5054044;28;19947;-67
2021/10/09 15:21:29;;;;;;;24.55;12.00;;;16.50;44.00;;;;;;5035685;28;20025;-66
2021/10/09 15:23:55;;;;;;;25.60;11.77;;;16.50;44.30;;;;;;5054142;28;20051;-67
2021/10/09 15:26:20;;;;;;;33.95;18.38;;;16.40;44.30;;;;;;5053178;28;20529;-67
2021/10/09 15:28:46;;;;;;;34.42;18.50;;;16.30;44.50;;;;;;5052829;28;20104;-68
2021/10/09 15:31:14;;;;;;;28.58;14.68;;;16.30;44.60;;;;;;5035394;28;20024;-66
2021/10/09 15:33:41;;;;;;;26.65;13.18;;;16.30;45.00;;;;;;5052720;28;20062;-66